Lawrence, Minnesota
Current Conditions -  °F | °C
As of 4:55 AM on Sunday 21 Dec 2014 (Local Time) from KGPZ Reporting Station
Overcast Overcast  
Wind Chill: 18°   Ceiling: 500
Heat Index: 28°   Visibility: 5mi
Dew Point: 27°   Wind: 12mph
Humidity: 93%   Direction: 160°SSE
Pressure: 29.86"   Gusts: 20mph
Location:  47.3121°N, 93.3823°W
Report Text: KGPZ 211055Z AUTO 16010G17KT 5SM OVC005 M02/M03 A2986 RMK AO1
Loading
Personal Weather Stations






























Interactive Weather Map New forecast layout! Learn more

10-Day Weather Forecast

Advertisements
Track Severe Weather on mobile